Time;durP1;ratioP1;P1;durP2;ratioP2;P2;SDS_P1;SDS_P2;PMS_P1;PMS_P2;Temp;Humidity;BMP_temperature;BMP_pressure;BME280_temperature;BME280_humidity;BME280_pressure;Samples;Min_cycle;Max_cycle;Signal;HPM_P1;HPM_P2
2022/10/05 00:02:22;;;;;;;8.82;4.63;;;15.80;65.00;;;;;;5029885;28;20543;-48
2022/10/05 00:04:53;;;;;;;7.00;4.50;;;15.80;65.10;;;;;;5019296;28;20054;-50
2022/10/05 00:07:23;;;;;;;5.22;4.43;;;15.80;65.30;;;;;;5019926;28;20033;-49
2022/10/05 00:09:55;;;;;;;4.50;3.97;;;15.80;65.30;;;;;;5022994;28;20052;-49
2022/10/05 00:12:23;;;;;;;7.07;4.60;;;15.80;65.60;;;;;;5028824;28;20045;-49
2022/10/05 00:14:54;;;;;;;6.88;4.95;;;15.80;65.40;;;;;;5012865;28;20038;-48
2022/10/05 00:17:24;;;;;;;5.88;4.30;;;15.80;65.60;;;;;;5019901;28;20037;-52
2022/10/05 00:19:52;;;;;;;7.18;5.18;;;15.80;65.70;;;;;;5005541;28;20046;-50
2022/10/05 00:22:21;;;;;;;6.18;5.57;;;15.80;65.70;;;;;;5021668;28;20622;-47
2022/10/05 00:24:54;;;;;;;9.43;4.80;;;15.80;65.90;;;;;;5033714;28;20042;-51
2022/10/05 00:27:24;;;;;;;6.05;4.80;;;15.80;66.10;;;;;;5017538;28;20042;-51
2022/10/05 00:29:57;;;;;;;5.38;4.88;;;15.90;66.10;;;;;;5010434;28;20245;-47
2022/10/05 00:32:25;;;;;;;9.50;5.13;;;15.80;66.20;;;;;;5009582;28;20041;-47
2022/10/05 00:34:53;;;;;;;7.55;5.13;;;15.90;65.90;;;;;;5006028;28;20501;-48
2022/10/05 00:37:20;;;;;;;6.68;4.45;;;15.80;65.90;;;;;;5024844;28;20490;-50
2022/10/05 00:39:48;;;;;;;7.55;5.22;;;15.80;65.90;;;;;;5016193;28;20053;-51
2022/10/05 00:42:53;;;;;;;6.93;4.90;;;15.80;66.00;;;;;;5000646;28;20066;-48
2022/10/05 00:45:36;;;;;;;6.68;5.18;;;15.80;66.60;;;;;;5002205;28;20528;-49
2022/10/05 00:48:18;;;;;;;4.88;4.40;;;15.90;66.20;;;;;;5015174;28;20083;-51
2022/10/05 00:51:04;;;;;;;;;;;15.80;65.80;;;;;;5024084;28;20112;-52
2022/10/05 00:54:05;;;;;;;4.88;4.38;;;15.90;66.00;;;;;;5015748;28;19928;-52
2022/10/05 00:56:53;;;;;;;6.18;4.70;;;15.90;66.10;;;;;;5024847;28;20069;-50
2022/10/05 00:59:50;;;;;;;5.53;5.03;;;15.80;65.80;;;;;;5000983;28;20096;-51
2022/10/05 01:02:41;;;;;;;6.35;5.68;;;15.80;66.70;;;;;;5006654;28;20134;-50
2022/10/05 01:05:20;;;;;;;6.22;4.97;;;15.80;65.90;;;;;;5033103;28;20512;-47
2022/10/05 01:08:17;;;;;;;6.63;4.88;;;15.80;66.30;;;;;;5007561;28;20683;-49
2022/10/05 01:11:23;;;;;;;6.90;4.78;;;15.80;67.00;;;;;;4989480;28;20060;-49
2022/10/05 01:13:58;;;;;;;5.18;4.68;;;15.80;67.20;;;;;;5013281;28;20038;-52
2022/10/05 01:16:34;;;;;;;8.25;5.20;;;15.80;66.90;;;;;;5012710;28;20045;-48
2022/10/05 01:19:47;;;;;;;5.55;4.68;;;15.80;66.80;;;;;;5008637;28;20047;-48
2022/10/05 01:22:29;;;;;;;6.60;5.20;;;15.80;67.50;;;;;;5014988;28;20064;-49
2022/10/05 01:25:19;;;;;;;6.43;4.83;;;15.80;66.80;;;;;;5002078;28;20103;-52
2022/10/05 01:28:21;;;;;;;5.22;4.72;;;15.80;67.80;;;;;;4995457;28;20077;-52
2022/10/05 01:31:11;;;;;;;5.70;4.95;;;15.80;67.80;;;;;;5015142;28;20065;-50
2022/10/05 01:33:59;;;;;;;8.75;5.88;;;15.80;67.90;;;;;;5005253;28;20091;-51
2022/10/05 01:36:38;;;;;;;5.15;4.63;;;15.80;67.90;;;;;;5031640;28;20056;-52
2022/10/05 01:39:26;;;;;;;6.13;5.40;;;15.80;67.40;;;;;;4999794;28;20052;-50
2022/10/05 01:41:59;;;;;;;7.32;5.35;;;15.80;67.80;;;;;;4981320;28;20498;-50
2022/10/05 01:44:31;;;;;;;7.25;4.95;;;15.80;67.50;;;;;;4994451;28;20565;-49
2022/10/05 01:47:35;;;;;;;8.48;5.03;;;15.80;67.60;;;;;;5009284;28;20038;-50
2022/10/05 01:50:23;;;;;;;6.35;5.65;;;15.80;68.20;;;;;;5020728;28;20047;-52
2022/10/05 01:53:04;;;;;;;5.75;4.55;;;15.80;68.10;;;;;;5017906;28;20038;-51
2022/10/05 01:56:03;;;;;;;6.55;4.90;;;15.80;68.10;;;;;;4994432;28;20049;-52
2022/10/05 01:59:14;;;;;;;5.47;4.78;;;15.80;68.60;;;;;;5009541;28;20056;-52
2022/10/05 02:01:55;;;;;;;6.53;5.55;;;15.80;68.70;;;;;;5005744;28;20137;-48
2022/10/05 02:04:38;;;;;;;7.22;5.95;;;15.90;68.50;;;;;;5013686;28;20132;-48
2022/10/05 02:07:41;;;;;;;4.90;4.30;;;15.90;68.70;;;;;;4986855;28;20173;-51
2022/10/05 02:10:19;;;;;;;7.95;5.30;;;16.00;68.30;;;;;;4998434;28;20065;-50
2022/10/05 02:12:47;;;;;;;8.10;5.53;;;16.00;68.30;;;;;;4989638;28;20042;-48
2022/10/05 02:15:21;;;;;;;6.50;5.28;;;16.00;68.00;;;;;;5014407;28;20033;-50
2022/10/05 02:17:55;;;;;;;6.18;5.35;;;16.10;68.40;;;;;;5017388;28;20528;-50
2022/10/05 02:20:27;;;;;;;5.22;4.72;;;16.10;68.90;;;;;;5008073;28;20076;-49
2022/10/05 02:22:59;;;;;;;7.07;5.10;;;16.20;68.30;;;;;;4999893;28;20041;-50
2022/10/05 02:25:31;;;;;;;7.47;5.80;;;16.20;68.20;;;;;;5012213;28;20046;-50
2022/10/05 02:28:33;;;;;;;6.30;5.13;;;16.20;68.10;;;;;;5006382;28;20100;-49
2022/10/05 02:31:11;;;;;;;6.28;5.65;;;16.30;68.40;;;;;;4975211;28;20054;-49
2022/10/05 02:33:39;;;;;;;5.95;4.68;;;16.30;68.00;;;;;;4991092;28;20053;-48
2022/10/05 02:36:19;;;;;;;6.35;4.50;;;16.30;67.70;;;;;;4993471;28;20045;-49
2022/10/05 02:38:53;;;;;;;6.68;4.97;;;16.40;68.10;;;;;;5017009;28;20048;-49
2022/10/05 02:41:55;;;;;;;8.02;5.07;;;16.40;67.90;;;;;;4993206;28;20046;-48
2022/10/05 02:44:36;;;;;;;5.60;4.72;;;16.40;68.50;;;;;;5002029;28;20080;-51
2022/10/05 02:47:32;;;;;;;6.40;4.63;;;16.40;67.90;;;;;;5020856;28;20061;-51
2022/10/05 02:50:08;;;;;;;7.57;4.95;;;16.40;68.20;;;;;;5011874;28;20041;-48
2022/10/05 02:52:55;;;;;;;6.10;4.72;;;16.40;67.70;;;;;;4991169;28;20076;-48
2022/10/05 02:55:36;;;;;;;6.68;4.95;;;16.40;68.20;;;;;;5006894;28;20041;-52
2022/10/05 02:58:13;;;;;;;7.10;5.20;;;16.40;68.00;;;;;;4991038;28;20045;-51
2022/10/05 03:00:46;;;;;;;8.98;4.93;;;16.40;67.70;;;;;;5013516;28;20516;-51
2022/10/05 03:03:40;;;;;;;7.57;5.22;;;16.40;68.00;;;;;;5011578;28;20104;-48
2022/10/05 03:06:20;;;;;;;6.07;4.50;;;16.40;68.10;;;;;;5000772;28;20084;-51
2022/10/05 03:09:01;;;;;;;4.85;4.38;;;16.40;68.00;;;;;;4989922;28;20442;-48
2022/10/05 03:11:57;;;;;;;5.60;5.00;;;16.40;68.40;;;;;;5000232;28;20061;-47
2022/10/05 03:14:45;;;;;;;6.88;4.15;;;16.40;68.20;;;;;;4989007;28;20073;-51
2022/10/05 03:17:24;;;;;;;6.28;3.90;;;16.40;67.70;;;;;;4989492;28;20566;-49
2022/10/05 03:20:15;;;;;;;5.28;4.35;;;16.40;68.00;;;;;;4990735;28;20469;-49
2022/10/05 03:22:56;;;;;;;5.18;4.68;;;16.40;68.20;;;;;;4996476;28;20582;-50
2022/10/05 03:25:46;;;;;;;5.10;4.28;;;16.40;67.90;;;;;;5002111;28;20415;-52
2022/10/05 03:28:38;;;;;;;6.15;4.75;;;16.40;68.00;;;;;;5014684;28;20465;-50
2022/10/05 03:31:17;;;;;;;5.03;4.53;;;16.40;67.50;;;;;;4980216;28;20038;-52
2022/10/05 03:34:26;;;;;;;4.63;4.22;;;16.40;67.80;;;;;;5003894;28;20108;-49
2022/10/05 03:37:16;;;;;;;5.72;3.95;;;16.40;68.40;;;;;;4960896;28;20129;-50
2022/10/05 03:39:53;;;;;;;4.97;3.72;;;16.40;68.30;;;;;;4990133;28;20077;-47
2022/10/05 03:42:34;;;;;;;5.38;4.63;;;16.40;68.00;;;;;;5005131;28;20045;-49
2022/10/05 03:45:32;;;;;;;5.05;4.55;;;16.40;68.10;;;;;;5007157;28;20049;-50
2022/10/05 03:48:12;;;;;;;4.85;4.30;;;16.40;68.50;;;;;;5011813;28;20417;-50
2022/10/05 03:51:07;;;;;;;4.47;4.07;;;16.40;68.30;;;;;;5013785;28;20084;-50
2022/10/05 03:53:43;;;;;;;5.22;4.72;;;16.40;68.50;;;;;;5001858;28;20133;-52
2022/10/05 03:56:15;;;;;;;4.60;3.95;;;16.40;68.10;;;;;;5029564;28;20476;-48
2022/10/05 03:58:55;;;;;;;7.53;3.83;;;16.40;67.80;;;;;;5004346;28;20506;-50
2022/10/05 04:01:44;;;;;;;4.82;4.10;;;16.40;68.30;;;;;;5015660;28;20049;-48
2022/10/05 04:04:17;;;;;;;4.82;4.00;;;16.40;68.00;;;;;;5018737;28;20201;-48
2022/10/05 04:06:47;;;;;;;6.70;4.68;;;16.40;67.80;;;;;;4993422;28;20136;-48
2022/10/05 04:09:38;;;;;;;5.43;4.25;;;16.40;67.80;;;;;;4996065;28;20038;-47
2022/10/05 04:12:26;;;;;;;5.35;4.75;;;16.40;68.20;;;;;;4995187;28;20145;-51
2022/10/05 04:15:12;;;;;;;6.55;4.07;;;16.40;68.00;;;;;;4994485;28;20042;-50
2022/10/05 04:18:02;;;;;;;5.25;4.20;;;16.40;67.70;;;;;;4989639;28;20069;-49
2022/10/05 04:20:43;;;;;;;7.55;4.70;;;16.40;67.70;;;;;;5010943;28;20053;-51
2022/10/05 04:23:23;;;;;;;4.72;4.32;;;16.40;68.20;;;;;;4999121;28;20613;-51
2022/10/05 04:26:01;;;;;;;5.25;4.18;;;16.30;68.00;;;;;;4994673;28;20593;-49
2022/10/05 04:28:55;;;;;;;8.18;4.95;;;16.30;68.20;;;;;;5015731;28;20045;-49
2022/10/05 04:31:35;;;;;;;6.68;4.78;;;16.30;68.50;;;;;;5022978;28;20386;-47
2022/10/05 04:34:23;;;;;;;5.13;4.63;;;16.30;68.20;;;;;;5000896;28;20042;-50
2022/10/05 04:36:59;;;;;;;4.82;4.43;;;16.30;68.20;;;;;;4999854;28;20041;-51
2022/10/05 04:39:52;;;;;;;5.50;4.55;;;16.20;68.30;;;;;;5020874;28;20049;-51
2022/10/05 04:42:32;;;;;;;5.93;4.82;;;16.20;68.60;;;;;;5027148;28;20619;-49
2022/10/05 04:45:26;;;;;;;4.82;4.05;;;16.20;68.60;;;;;;5004102;28;20460;-49
2022/10/05 04:48:04;;;;;;;6.22;4.10;;;16.20;68.50;;;;;;4959346;28;20152;-49
2022/10/05 04:50:43;;;;;;;4.47;4.00;;;16.20;68.30;;;;;;5018142;28;20049;-50
2022/10/05 04:53:35;;;;;;;5.72;5.20;;;16.20;68.50;;;;;;4990783;28;20046;-52
2022/10/05 04:56:19;;;;;;;5.32;4.35;;;16.30;68.80;;;;;;5013352;28;20040;-52
2022/10/05 04:58:58;;;;;;;5.88;4.65;;;16.30;69.20;;;;;;4999629;28;20485;-50
2022/10/05 05:02:13;;;;;;;5.00;4.38;;;16.30;69.20;;;;;;4993974;28;20092;-47
2022/10/05 05:04:52;;;;;;;4.20;3.80;;;16.30;69.30;;;;;;4993621;28;20133;-50
2022/10/05 05:07:57;;;;;;;7.15;4.30;;;16.40;69.00;;;;;;5015355;28;20533;-49
2022/10/05 05:10:56;;;;;;;5.78;4.35;;;16.40;68.90;;;;;;4998303;28;20057;-49
2022/10/05 05:13:23;;;;;;;9.70;4.35;;;16.40;69.00;;;;;;4999663;28;20075;-48
2022/10/05 05:16:06;;;;;;;5.70;4.07;;;16.40;68.40;;;;;;5002668;28;20077;-49
2022/10/05 05:19:11;;;;;;;4.93;3.70;;;16.40;68.60;;;;;;5019429;28;20045;-51
2022/10/05 05:21:43;;;;;;;4.20;3.80;;;16.50;69.10;;;;;;4974393;28;20058;-52
2022/10/05 05:24:24;;;;;;;4.35;3.88;;;16.50;68.70;;;;;;4984691;28;20133;-48
2022/10/05 05:27:15;;;;;;;6.47;4.00;;;16.50;69.50;;;;;;5008264;28;20045;-51
2022/10/05 05:29:51;;;;;;;4.45;4.05;;;16.50;68.90;;;;;;5004923;28;20466;-49
2022/10/05 05:32:36;;;;;;;4.45;3.72;;;16.60;68.70;;;;;;5008014;28;20066;-51
2022/10/05 05:35:27;;;;;;;6.20;3.45;;;16.60;68.50;;;;;;5004962;28;20041;-49
2022/10/05 05:38:30;;;;;;;5.68;3.38;;;16.60;68.80;;;;;;5001190;28;20045;-49
2022/10/05 05:41:07;;;;;;;5.55;3.58;;;16.60;68.70;;;;;;5005583;28;20049;-51
2022/10/05 05:44:05;;;;;;;4.13;3.30;;;16.60;68.10;;;;;;5004689;28;20438;-49
2022/10/05 05:46:35;;;;;;;5.38;3.88;;;16.70;68.50;;;;;;5006552;28;20042;-52
2022/10/05 05:49:32;;;;;;;5.88;3.85;;;16.70;68.00;;;;;;5014998;28;20057;-52
2022/10/05 05:52:34;;;;;;;4.22;3.17;;;16.70;68.20;;;;;;4990368;28;20572;-50
2022/10/05 05:55:15;;;;;;;4.53;3.97;;;16.80;68.50;;;;;;5014483;28;20104;-51
2022/10/05 05:57:47;;;;;;;7.50;4.90;;;16.70;68.10;;;;;;4992282;28;20064;-49
2022/10/05 06:00:14;;;;;;;4.47;3.30;;;16.80;68.00;;;;;;4982912;28;20129;-47
2022/10/05 06:03:16;;;;;;;3.30;2.85;;;16.80;67.80;;;;;;5018162;28;20659;-49
2022/10/05 06:05:53;;;;;;;3.80;3.25;;;16.80;68.30;;;;;;4974311;28;20046;-50
2022/10/05 06:08:49;;;;;;;3.45;3.15;;;16.80;67.90;;;;;;5017013;28;20107;-49
2022/10/05 06:11:51;;;;;;;3.80;3.40;;;16.90;68.10;;;;;;4984571;28;20576;-51
2022/10/05 06:14:40;;;;;;;5.85;3.35;;;16.90;68.00;;;;;;5005487;28;20632;-50
2022/10/05 06:17:16;;;;;;;3.83;3.45;;;17.00;68.00;;;;;;5000258;28;20084;-50
2022/10/05 06:19:47;;;;;;;3.35;3.03;;;17.00;67.70;;;;;;4997403;28;20064;-51
2022/10/05 06:22:21;;;;;;;3.40;3.10;;;17.00;67.50;;;;;;5000985;28;20510;-51
2022/10/05 06:25:11;;;;;;;3.63;3.28;;;17.00;67.70;;;;;;4993466;28;20547;-52
2022/10/05 06:28:12;;;;;;;3.33;2.67;;;17.00;67.70;;;;;;4991403;28;20117;-48
2022/10/05 06:30:53;;;;;;;;;;;17.10;67.70;;;;;;5000884;28;20065;-48
2022/10/05 06:33:28;;;;;;;3.70;3.40;;;17.20;67.30;;;;;;5006234;28;20011;-50
2022/10/05 06:36:01;;;;;;;3.25;2.95;;;17.20;67.20;;;;;;5010185;28;20080;-49
2022/10/05 06:39:06;;;;;;;3.05;2.53;;;17.10;67.10;;;;;;4994057;28;20046;-51
2022/10/05 06:41:51;;;;;;;3.65;2.50;;;17.20;67.30;;;;;;5005541;28;20046;-49
2022/10/05 06:44:29;;;;;;;3.88;2.85;;;17.20;67.00;;;;;;5007517;28;20046;-48
2022/10/05 06:47:56;;;;;;;3.42;2.88;;;17.20;67.10;;;;;;4995946;28;20410;-48
2022/10/05 06:50:46;;;;;;;3.63;2.70;;;17.30;67.20;;;;;;5004949;28;20128;-50
2022/10/05 06:53:30;;;;;;;4.15;3.22;;;17.30;66.90;;;;;;5029384;28;20497;-49
2022/10/05 06:56:02;;;;;;;3.92;2.88;;;17.30;66.80;;;;;;5013372;28;20072;-52
2022/10/05 06:58:40;;;;;;;3.58;3.00;;;17.40;66.80;;;;;;4999631;28;20041;-48
2022/10/05 07:01:14;;;;;;;3.20;2.70;;;17.40;67.00;;;;;;5001064;28;20049;-51
2022/10/05 07:04:08;;;;;;;4.53;2.63;;;17.40;66.90;;;;;;4992021;28;20097;-50
2022/10/05 07:06:39;;;;;;;;;;;17.50;66.90;;;;;;4999471;28;20046;-53
2022/10/05 07:09:25;;;;;;;3.03;2.72;;;17.60;66.60;;;;;;5001797;28;19921;-49
2022/10/05 07:12:13;;;;;;;3.88;2.97;;;17.60;66.50;;;;;;4993344;28;20061;-53
2022/10/05 07:15:35;;;;;;;2.90;2.55;;;17.50;66.00;;;;;;5001411;28;20072;-51
2022/10/05 07:18:23;;;;;;;2.90;2.70;;;17.60;66.30;;;;;;4956158;28;20042;-52
2022/10/05 07:21:10;;;;;;;3.03;2.65;;;17.60;66.10;;;;;;5013425;28;20538;-53
2022/10/05 07:24:01;;;;;;;2.88;2.42;;;17.60;66.10;;;;;;5005203;28;20061;-49
2022/10/05 07:26:38;;;;;;;3.42;2.38;;;17.60;66.10;;;;;;5014726;28;20112;-53
2022/10/05 07:29:15;;;;;;;4.07;2.95;;;17.70;66.10;;;;;;5004607;28;20087;-51
2022/10/05 07:32:09;;;;;;;2.63;2.42;;;17.70;66.00;;;;;;4998330;28;20417;-49
2022/10/05 07:34:42;;;;;;;3.15;2.60;;;17.70;65.90;;;;;;5018793;28;20517;-51
2022/10/05 07:40:18;;;;;;;3.03;2.30;;;17.90;65.80;;;;;;4988091;28;20024;-53
2022/10/05 07:43:10;;;;;;;4.15;3.10;;;18.00;65.60;;;;;;5007194;28;20046;-50
2022/10/05 07:45:51;;;;;;;3.28;2.58;;;18.00;65.30;;;;;;4995985;28;20053;-53
2022/10/05 07:48:31;;;;;;;3.33;2.08;;;18.00;65.30;;;;;;5004606;28;20048;-52
2022/10/05 07:51:29;;;;;;;3.83;2.28;;;18.10;65.30;;;;;;4992191;28;20395;-50
2022/10/05 07:54:25;;;;;;;2.75;2.47;;;18.10;65.30;;;;;;4975052;28;20060;-54
2022/10/05 07:57:29;;;;;;;3.33;2.28;;;18.20;65.00;;;;;;5008919;28;20038;-51
2022/10/05 08:00:06;;;;;;;4.03;2.75;;;18.20;65.10;;;;;;5008748;28;20042;-54
2022/10/05 08:02:48;;;;;;;2.65;2.45;;;18.30;64.70;;;;;;4992890;28;20045;-53
2022/10/05 08:05:27;;;;;;;2.83;2.50;;;18.30;64.60;;;;;;5017516;28;20041;-53
2022/10/05 08:08:30;;;;;;;4.40;2.35;;;18.40;64.70;;;;;;5017690;28;20047;-54
2022/10/05 08:11:23;;;;;;;2.60;2.00;;;18.40;64.40;;;;;;5006157;28;20064;-54
2022/10/05 08:13:54;;;;;;;2.40;2.10;;;18.50;64.70;;;;;;5014405;28;20036;-51
2022/10/05 08:16:24;;;;;;;2.37;2.17;;;18.50;64.30;;;;;;5013880;28;20121;-52
2022/10/05 08:18:58;;;;;;;2.78;2.58;;;18.60;64.40;;;;;;5011032;28;20057;-50
2022/10/05 08:21:50;;;;;;;7.03;2.13;;;18.60;64.00;;;;;;4999752;28;20046;-52
2022/10/05 08:24:40;;;;;;;2.38;2.15;;;18.70;64.30;;;;;;5015624;28;20115;-51
2022/10/05 08:27:49;;;;;;;2.40;2.20;;;18.80;64.00;;;;;;5008749;28;20041;-52
2022/10/05 08:30:16;;;;;;;2.35;2.15;;;18.90;63.80;;;;;;5003872;28;20121;-52
2022/10/05 08:33:06;;;;;;;2.58;2.38;;;18.90;64.00;;;;;;5008333;28;20038;-53
2022/10/05 08:35:54;;;;;;;3.10;2.55;;;19.00;63.50;;;;;;5007736;28;20088;-52
2022/10/05 08:38:53;;;;;;;2.30;2.10;;;19.10;63.10;;;;;;5029369;28;20073;-52
2022/10/05 08:41:59;;;;;;;3.80;1.90;;;19.20;63.00;;;;;;5010680;28;20072;-51
2022/10/05 08:44:46;;;;;;;2.83;2.20;;;19.30;62.70;;;;;;5023087;28;20087;-50
2022/10/05 08:47:49;;;;;;;2.30;1.92;;;19.30;62.70;;;;;;4995213;28;20064;-49
2022/10/05 08:51:01;;;;;;;2.50;2.25;;;19.40;62.00;;;;;;5006763;28;20042;-49
2022/10/05 08:53:54;;;;;;;2.13;2.00;;;19.50;62.40;;;;;;5022814;28;20092;-53
2022/10/05 08:56:49;;;;;;;3.15;2.22;;;19.50;62.10;;;;;;5033181;28;20052;-54
2022/10/05 08:59:31;;;;;;;5.03;1.67;;;19.60;62.00;;;;;;5016289;28;20047;-52
2022/10/05 09:02:03;;;;;;;2.42;1.77;;;19.60;61.90;;;;;;5018954;28;20570;-52
2022/10/05 09:04:57;;;;;;;2.60;2.40;;;19.70;61.80;;;;;;5032141;28;20080;-50
2022/10/05 09:07:48;;;;;;;2.30;1.75;;;19.70;61.40;;;;;;5023011;28;20554;-52
2022/10/05 09:10:35;;;;;;;2.15;1.95;;;19.80;61.30;;;;;;5019439;28;20041;-51
2022/10/05 09:13:30;;;;;;;2.70;2.08;;;19.80;61.10;;;;;;5022266;28;20044;-51
2022/10/05 09:16:18;;;;;;;2.03;1.83;;;19.90;61.10;;;;;;5020706;28;20049;-54
2022/10/05 09:19:21;;;;;;;2.03;1.60;;;20.00;61.10;;;;;;5008801;28;20152;-55
2022/10/05 09:21:55;;;;;;;1.67;1.50;;;20.00;60.70;;;;;;5013832;28;20117;-53
2022/10/05 09:24:45;;;;;;;1.85;1.67;;;20.10;61.20;;;;;;5013548;28;20048;-50
2022/10/05 09:27:24;;;;;;;3.00;1.92;;;20.20;60.90;;;;;;5007744;28;20503;-50
2022/10/05 09:30:04;;;;;;;2.50;2.20;;;20.20;60.50;;;;;;5013351;28;20054;-54
2022/10/05 09:32:43;;;;;;;2.85;1.90;;;20.30;60.30;;;;;;5013022;28;20046;-52
2022/10/05 09:35:26;;;;;;;2.80;1.63;;;20.40;60.10;;;;;;5008886;28;20124;-53
2022/10/05 09:38:09;;;;;;;2.08;1.60;;;20.50;59.80;;;;;;5010843;28;20045;-52
2022/10/05 09:40:59;;;;;;;1.92;1.65;;;20.60;59.60;;;;;;5020604;28;20041;-50
2022/10/05 09:43:57;;;;;;;1.83;1.55;;;20.60;59.50;;;;;;5013024;28;20042;-52
2022/10/05 09:47:09;;;;;;;1.60;1.50;;;20.70;59.30;;;;;;5018432;28;20053;-49
2022/10/05 09:50:13;;;;;;;2.33;1.73;;;20.80;59.00;;;;;;5009170;28;20057;-51
2022/10/05 09:53:04;;;;;;;4.25;1.52;;;20.80;59.00;;;;;;5032380;28;20046;-50
2022/10/05 09:55:44;;;;;;;;;;;20.90;58.80;;;;;;5008490;28;20050;-48
2022/10/05 09:58:47;;;;;;;2.22;1.45;;;20.90;59.50;;;;;;5024673;28;19921;-52
2022/10/05 10:01:15;;;;;;;1.40;1.30;;;21.00;58.60;;;;;;5003889;28;20050;-49
2022/10/05 10:04:09;;;;;;;1.30;1.20;;;21.00;58.70;;;;;;4993687;28;20064;-48
2022/10/05 10:06:55;;;;;;;2.20;1.50;;;21.10;58.30;;;;;;5017831;28;20539;-52
2022/10/05 10:09:40;;;;;;;2.03;1.50;;;21.10;57.80;;;;;;5024119;28;20746;-49
2022/10/05 10:12:28;;;;;;;1.40;1.30;;;21.20;58.20;;;;;;5032365;28;20133;-48
2022/10/05 10:15:27;;;;;;;1.75;1.65;;;21.30;58.20;;;;;;4998347;28;20129;-51
2022/10/05 10:18:21;;;;;;;1.00;1.00;;;21.30;58.20;;;;;;5012723;28;20041;-50
2022/10/05 10:21:10;;;;;;;1.48;1.38;;;21.40;58.00;;;;;;5023502;28;20043;-49
2022/10/05 10:24:00;;;;;;;2.42;1.23;;;21.40;57.70;;;;;;5015726;28;20030;-52
2022/10/05 10:27:04;;;;;;;1.88;1.55;;;21.50;57.80;;;;;;5022157;28;20129;-48
2022/10/05 10:29:58;;;;;;;1.10;1.10;;;21.60;57.20;;;;;;5030097;28;20048;-51
2022/10/05 10:32:33;;;;;;;2.17;1.73;;;21.60;57.20;;;;;;5012467;28;20421;-48
2022/10/05 10:35:34;;;;;;;1.88;1.30;;;21.70;57.20;;;;;;5010588;28;20050;-49
2022/10/05 10:38:22;;;;;;;2.25;1.35;;;21.70;57.00;;;;;;5003779;28;20049;-50
2022/10/05 10:41:31;;;;;;;2.95;1.50;;;21.80;56.90;;;;;;5007865;28;20049;-52
2022/10/05 10:44:19;;;;;;;1.75;1.23;;;21.80;57.10;;;;;;5005784;28;20063;-52
2022/10/05 10:47:23;;;;;;;1.10;1.05;;;21.80;56.90;;;;;;5029459;28;20044;-52
2022/10/05 10:50:52;;;;;;;1.98;1.33;;;21.80;56.60;;;;;;5002723;28;20048;-50
2022/10/05 10:53:21;;;;;;;2.72;1.30;;;21.90;56.60;;;;;;4966455;28;20042;-48
2022/10/05 10:56:22;;;;;;;1.27;1.17;;;21.90;56.90;;;;;;5019259;28;20045;-50
2022/10/05 10:58:52;;;;;;;2.08;1.23;;;21.90;56.80;;;;;;5010640;28;20264;-50
2022/10/05 11:01:43;;;;;;;1.40;1.30;;;22.00;56.90;;;;;;5022840;28;20056;-48
2022/10/05 11:04:18;;;;;;;1.83;1.42;;;22.00;56.10;;;;;;5021663;28;20387;-51
2022/10/05 11:07:15;;;;;;;1.58;1.48;;;22.10;56.40;;;;;;5016033;28;20071;-48
2022/10/05 11:10:04;;;;;;;1.13;1.02;;;22.20;56.10;;;;;;5015103;28;20084;-51
2022/10/05 11:12:33;;;;;;;3.53;1.30;;;22.20;56.30;;;;;;5014364;28;20042;-49
2022/10/05 11:15:06;;;;;;;2.58;1.40;;;22.20;56.40;;;;;;5014690;28;20140;-52
2022/10/05 11:17:50;;;;;;;2.05;1.88;;;22.30;56.30;;;;;;5018718;28;20505;-51
2022/10/05 11:20:44;;;;;;;1.65;1.55;;;22.30;56.00;;;;;;4992032;28;20045;-48
2022/10/05 11:23:28;;;;;;;2.20;1.65;;;22.30;55.40;;;;;;5015495;28;20083;-48
2022/10/05 11:26:14;;;;;;;1.65;1.25;;;22.30;55.70;;;;;;5014513;28;20046;-48
2022/10/05 11:28:52;;;;;;;1.33;1.23;;;22.30;55.90;;;;;;5007854;28;20048;-50
2022/10/05 11:31:28;;;;;;;3.20;1.55;;;22.30;56.10;;;;;;5010167;28;20064;-49
2022/10/05 11:34:26;;;;;;;4.40;1.55;;;22.20;55.80;;;;;;5015735;28;20058;-48
2022/10/05 11:37:09;;;;;;;1.25;1.15;;;22.20;55.70;;;;;;5008758;28;20107;-49
2022/10/05 11:40:32;;;;;;;3.97;1.50;;;22.10;55.90;;;;;;5023480;28;20160;-51
2022/10/05 11:43:17;;;;;;;1.98;1.88;;;22.10;56.50;;;;;;4984569;28;20057;-52
2022/10/05 11:46:16;;;;;;;1.40;1.15;;;22.10;56.30;;;;;;5006517;28;20045;-52
2022/10/05 11:49:03;;;;;;;1.58;1.48;;;22.10;56.40;;;;;;5009945;28;20088;-51
2022/10/05 11:51:39;;;;;;;0.95;0.90;;;22.10;56.10;;;;;;5016959;28;20053;-48
2022/10/05 11:54:06;;;;;;;3.30;0.98;;;22.10;56.30;;;;;;5028685;28;20049;-49
2022/10/05 11:56:43;;;;;;;1.60;1.50;;;22.10;56.40;;;;;;5013715;28;20575;-50
2022/10/05 11:59:27;;;;;;;1.70;1.20;;;22.10;56.60;;;;;;5016863;28;20084;-47
2022/10/05 12:02:22;;;;;;;2.78;1.65;;;22.10;56.00;;;;;;4987946;28;20074;-52
2022/10/05 12:05:26;;;;;;;3.22;1.40;;;22.20;56.10;;;;;;4995363;28;20121;-50
2022/10/05 12:08:11;;;;;;;2.38;1.10;;;22.20;55.90;;;;;;5007615;28;20052;-49
2022/10/05 12:11:00;;;;;;;2.55;1.33;;;22.20;55.50;;;;;;5019517;28;20054;-50
2022/10/05 12:13:45;;;;;;;1.42;1.05;;;22.20;55.90;;;;;;5014558;28;20046;-52
2022/10/05 12:16:18;;;;;;;1.20;1.10;;;22.20;55.80;;;;;;5006980;28;20048;-50
2022/10/05 12:18:56;;;;;;;2.25;1.10;;;22.30;56.00;;;;;;4994148;28;20121;-51
2022/10/05 12:21:28;;;;;;;1.08;1.08;;;22.30;55.90;;;;;;5013227;28;20046;-47
2022/10/05 12:24:02;;;;;;;1.13;1.02;;;22.30;56.30;;;;;;5015051;28;20030;-50
2022/10/05 12:26:48;;;;;;;0.90;0.90;;;22.40;55.90;;;;;;5017517;28;20041;-50
2022/10/05 12:29:21;;;;;;;3.25;1.15;;;22.40;55.20;;;;;;5017502;28;20100;-52
2022/10/05 12:32:15;;;;;;;1.02;1.02;;;22.40;55.60;;;;;;5007080;28;20042;-50
2022/10/05 12:35:16;;;;;;;4.00;1.30;;;22.50;55.10;;;;;;5009996;28;20394;-51
2022/10/05 12:38:21;;;;;;;1.80;0.93;;;22.60;55.20;;;;;;5016816;28;20069;-49
2022/10/05 12:40:57;;;;;;;1.40;1.30;;;22.60;55.10;;;;;;4994304;28;20038;-50
2022/10/05 12:43:41;;;;;;;1.80;0.90;;;22.60;55.10;;;;;;5012127;28;20042;-50
2022/10/05 12:46:24;;;;;;;1.15;0.90;;;22.70;54.40;;;;;;5022732;28;20481;-48
2022/10/05 12:49:06;;;;;;;2.20;0.90;;;22.70;54.60;;;;;;5009823;28;20038;-51
2022/10/05 12:51:47;;;;;;;0.90;0.90;;;22.80;54.60;;;;;;5008223;28;20042;-52
2022/10/05 12:54:28;;;;;;;3.83;1.20;;;22.80;54.40;;;;;;5011952;28;20092;-50
2022/10/05 12:57:24;;;;;;;1.42;1.10;;;22.90;54.60;;;;;;5007795;28;20597;-49
2022/10/05 13:00:18;;;;;;;1.40;1.08;;;23.00;54.40;;;;;;5009487;28;20042;-52
2022/10/05 13:02:57;;;;;;;1.10;1.00;;;23.10;54.30;;;;;;5012393;28;20041;-50
2022/10/05 13:05:29;;;;;;;1.67;1.38;;;23.10;54.20;;;;;;5012291;28;20153;-48
2022/10/05 13:08:29;;;;;;;0.98;0.88;;;23.20;53.90;;;;;;5017490;28;20066;-52
2022/10/05 13:11:07;;;;;;;0.93;0.85;;;23.30;53.50;;;;;;5011731;28;20074;-52
2022/10/05 13:13:52;;;;;;;1.98;0.82;;;23.40;53.30;;;;;;5019339;28;20046;-49
2022/10/05 13:16:45;;;;;;;1.50;1.40;;;23.40;52.90;;;;;;5019623;28;20087;-48
2022/10/05 13:19:43;;;;;;;0.90;0.90;;;23.50;53.30;;;;;;5010387;28;20077;-52
2022/10/05 13:22:50;;;;;;;0.90;0.90;;;23.60;52.50;;;;;;5009959;28;20085;-48
2022/10/05 13:25:37;;;;;;;9.38;1.92;;;23.70;51.90;;;;;;5018315;28;20152;-49
2022/10/05 13:28:14;;;;;;;3.22;1.30;;;23.80;51.70;;;;;;5004435;28;20049;-52
2022/10/05 13:30:59;;;;;;;1.37;0.90;;;23.80;52.00;;;;;;5012657;28;20115;-52
2022/10/05 13:33:49;;;;;;;2.10;1.58;;;23.90;52.10;;;;;;5023144;28;20125;-52
2022/10/05 13:36:50;;;;;;;2.38;1.05;;;24.20;51.90;;;;;;5013691;28;20080;-49
2022/10/05 13:39:23;;;;;;;1.85;0.90;;;24.70;52.00;;;;;;5008925;28;20046;-51
2022/10/05 13:42:09;;;;;;;1.08;0.93;;;25.60;52.20;;;;;;5000133;28;20041;-50
2022/10/05 13:44:51;;;;;;;0.63;0.57;;;26.60;52.60;;;;;;5031456;28;20046;-50
2022/10/05 13:47:41;;;;;;;1.30;0.80;;;27.90;50.20;;;;;;5016554;28;20069;-49
2022/10/05 13:50:22;;;;;;;0.98;0.90;;;29.10;49.20;;;;;;5023170;28;20043;-49
2022/10/05 13:53:13;;;;;;;1.48;0.75;;;30.40;47.00;;;;;;5017293;28;20116;-51
2022/10/05 13:55:46;;;;;;;0.52;0.52;;;31.60;45.10;;;;;;5025210;28;20064;-52
2022/10/05 13:58:44;;;;;;;1.10;0.70;;;32.60;44.00;;;;;;5010036;28;20133;-51
2022/10/05 14:01:34;;;;;;;1.00;0.80;;;33.50;42.30;;;;;;5021532;28;20047;-52
2022/10/05 14:04:16;;;;;;;2.50;0.70;;;34.20;40.50;;;;;;5008641;28;20457;-49
2022/10/05 14:06:47;;;;;;;0.57;0.47;;;34.80;38.40;;;;;;5010894;28;20037;-53
2022/10/05 14:09:21;;;;;;;2.10;0.63;;;35.20;38.10;;;;;;5025696;28;20044;-52
2022/10/05 14:11:53;;;;;;;0.65;0.65;;;35.60;37.00;;;;;;5016375;28;20077;-49
2022/10/05 14:14:29;;;;;;;1.70;0.90;;;35.80;36.20;;;;;;5006797;28;20057;-50
2022/10/05 14:17:03;;;;;;;1.15;0.80;;;36.20;36.00;;;;;;5011104;28;20126;-49
2022/10/05 14:19:49;;;;;;;0.82;0.80;;;36.40;35.70;;;;;;5012344;28;20072;-53
2022/10/05 14:22:23;;;;;;;2.55;0.98;;;36.80;35.20;;;;;;5018341;28;20038;-52
2022/10/05 14:25:15;;;;;;;0.75;0.68;;;37.00;34.10;;;;;;5012101;28;20799;-52
2022/10/05 14:27:52;;;;;;;0.93;0.80;;;37.00;34.10;;;;;;5017948;28;20456;-53